sensor_id;sensor_type;location;lat;lon;timestamp;temperature;humidity
27226;DHT22;14732;51.074;3.788;2023-09-08T00:02:18;21.10;99.90
27226;DHT22;14732;51.074;3.788;2023-09-08T00:04:44;21.10;99.90
27226;DHT22;14732;51.074;3.788;2023-09-08T00:07:09;21.10;99.90
27226;DHT22;14732;51.074;3.788;2023-09-08T00:09:35;21.00;99.90
27226;DHT22;14732;51.074;3.788;2023-09-08T00:12:01;20.90;99.90
27226;DHT22;14732;51.074;3.788;2023-09-08T00:14:26;21.00;99.90
27226;DHT22;14732;51.074;3.788;2023-09-08T00:16:52;20.90;99.90
27226;DHT22;14732;51.074;3.788;2023-09-08T00:19:21;20.90;99.90
27226;DHT22;14732;51.074;3.788;2023-09-08T00:21:48;20.80;99.90
27226;DHT22;14732;51.074;3.788;2023-09-08T00:24:14;20.80;99.90
27226;DHT22;14732;51.074;3.788;2023-09-08T00:26:40;20.80;99.90
27226;DHT22;14732;51.074;3.788;2023-09-08T00:29:06;20.80;99.90
27226;DHT22;14732;51.074;3.788;2023-09-08T00:31:32;20.80;99.90
27226;DHT22;14732;51.074;3.788;2023-09-08T00:33:58;20.70;99.90
27226;DHT22;14732;51.074;3.788;2023-09-08T00:36:24;20.70;99.90
27226;DHT22;14732;51.074;3.788;2023-09-08T00:38:49;20.70;99.90
27226;DHT22;14732;51.074;3.788;2023-09-08T00:41:15;20.70;99.90
27226;DHT22;14732;51.074;3.788;2023-09-08T00:43:41;20.70;99.90
27226;DHT22;14732;51.074;3.788;2023-09-08T00:46:07;20.70;99.90
27226;DHT22;14732;51.074;3.788;2023-09-08T00:48:34;20.60;99.90
27226;DHT22;14732;51.074;3.788;2023-09-08T00:51:00;20.50;99.90
27226;DHT22;14732;51.074;3.788;2023-09-08T00:53:26;20.50;99.90
27226;DHT22;14732;51.074;3.788;2023-09-08T00:55:52;20.60;99.90
27226;DHT22;14732;51.074;3.788;2023-09-08T00:58:19;20.60;99.90
27226;DHT22;14732;51.074;3.788;2023-09-08T01:00:44;20.60;99.90
27226;DHT22;14732;51.074;3.788;2023-09-08T01:03:11;20.60;99.90
27226;DHT22;14732;51.074;3.788;2023-09-08T01:05:37;20.60;99.90
27226;DHT22;14732;51.074;3.788;2023-09-08T01:08:04;20.60;99.90
27226;DHT22;14732;51.074;3.788;2023-09-08T01:10:30;20.50;99.90
27226;DHT22;14732;51.074;3.788;2023-09-08T01:12:55;20.50;99.90
27226;DHT22;14732;51.074;3.788;2023-09-08T01:15:21;20.50;99.90
27226;DHT22;14732;51.074;3.788;2023-09-08T01:17:47;20.50;99.90
27226;DHT22;14732;51.074;3.788;2023-09-08T01:20:30;20.50;99.90
27226;DHT22;14732;51.074;3.788;2023-09-08T01:26:22;20.40;99.90
27226;DHT22;14732;51.074;3.788;2023-09-08T01:28:23;20.30;99.90
27226;DHT22;14732;51.074;3.788;2023-09-08T01:30:50;20.20;99.90
27226;DHT22;14732;51.074;3.788;2023-09-08T01:33:17;20.20;99.90
27226;DHT22;14732;51.074;3.788;2023-09-08T01:35:43;20.20;99.90
27226;DHT22;14732;51.074;3.788;2023-09-08T01:38:08;20.30;99.90
27226;DHT22;14732;51.074;3.788;2023-09-08T01:40:34;20.30;99.90
27226;DHT22;14732;51.074;3.788;2023-09-08T01:43:00;20.30;99.90
27226;DHT22;14732;51.074;3.788;2023-09-08T01:45:26;20.20;99.90
27226;DHT22;14732;51.074;3.788;2023-09-08T01:47:51;20.30;99.90
27226;DHT22;14732;51.074;3.788;2023-09-08T01:50:17;20.30;99.90
27226;DHT22;14732;51.074;3.788;2023-09-08T01:52:47;20.30;99.90
27226;DHT22;14732;51.074;3.788;2023-09-08T01:55:12;20.20;99.90
27226;DHT22;14732;51.074;3.788;2023-09-08T01:57:38;20.10;99.90
27226;DHT22;14732;51.074;3.788;2023-09-08T02:00:04;20.10;99.90
27226;DHT22;14732;51.074;3.788;2023-09-08T02:02:30;20.00;99.90
27226;DHT22;14732;51.074;3.788;2023-09-08T02:04:56;20.00;99.90
27226;DHT22;14732;51.074;3.788;2023-09-08T02:07:22;20.00;99.90
27226;DHT22;14732;51.074;3.788;2023-09-08T02:09:47;20.00;99.90
27226;DHT22;14732;51.074;3.788;2023-09-08T02:12:13;19.90;99.90
27226;DHT22;14732;51.074;3.788;2023-09-08T02:14:38;20.00;99.90
27226;DHT22;14732;51.074;3.788;2023-09-08T02:17:04;19.90;99.90
27226;DHT22;14732;51.074;3.788;2023-09-08T02:19:31;19.90;99.90
27226;DHT22;14732;51.074;3.788;2023-09-08T02:21:57;19.90;99.90
27226;DHT22;14732;51.074;3.788;2023-09-08T02:24:22;19.90;99.90
27226;DHT22;14732;51.074;3.788;2023-09-08T02:26:49;19.80;99.90
27226;DHT22;14732;51.074;3.788;2023-09-08T02:29:14;19.80;99.90
27226;DHT22;14732;51.074;3.788;2023-09-08T02:31:40;19.90;99.90
27226;DHT22;14732;51.074;3.788;2023-09-08T02:34:06;19.80;99.90
27226;DHT22;14732;51.074;3.788;2023-09-08T02:36:31;19.80;99.90
27226;DHT22;14732;51.074;3.788;2023-09-08T02:38:57;19.80;99.90
27226;DHT22;14732;51.074;3.788;2023-09-08T02:41:23;19.80;99.90
27226;DHT22;14732;51.074;3.788;2023-09-08T02:43:49;19.80;99.90
27226;DHT22;14732;51.074;3.788;2023-09-08T02:46:15;19.80;99.90
27226;DHT22;14732;51.074;3.788;2023-09-08T02:48:41;19.70;99.90
27226;DHT22;14732;51.074;3.788;2023-09-08T02:51:07;19.70;99.90
27226;DHT22;14732;51.074;3.788;2023-09-08T02:53:33;19.70;99.90
27226;DHT22;14732;51.074;3.788;2023-09-08T02:55:59;19.60;99.90
27226;DHT22;14732;51.074;3.788;2023-09-08T02:58:26;19.70;99.90
27226;DHT22;14732;51.074;3.788;2023-09-08T03:00:52;19.60;99.90
27226;DHT22;14732;51.074;3.788;2023-09-08T03:03:19;19.60;99.90
27226;DHT22;14732;51.074;3.788;2023-09-08T03:05:44;19.60;99.90
27226;DHT22;14732;51.074;3.788;2023-09-08T03:08:10;19.50;99.90
27226;DHT22;14732;51.074;3.788;2023-09-08T03:10:36;19.50;99.90
27226;DHT22;14732;51.074;3.788;2023-09-08T03:13:05;19.50;99.90
27226;DHT22;14732;51.074;3.788;2023-09-08T03:15:31;19.50;99.90
27226;DHT22;14732;51.074;3.788;2023-09-08T03:17:57;19.50;99.90
27226;DHT22;14732;51.074;3.788;2023-09-08T03:20:27;19.50;99.90
27226;DHT22;14732;51.074;3.788;2023-09-08T03:22:53;19.50;99.90
27226;DHT22;14732;51.074;3.788;2023-09-08T03:25:19;19.50;99.90
27226;DHT22;14732;51.074;3.788;2023-09-08T03:27:45;19.40;99.90
27226;DHT22;14732;51.074;3.788;2023-09-08T03:30:11;19.30;99.90
27226;DHT22;14732;51.074;3.788;2023-09-08T03:32:37;19.30;99.90
27226;DHT22;14732;51.074;3.788;2023-09-08T03:35:03;19.30;99.90
27226;DHT22;14732;51.074;3.788;2023-09-08T03:37:31;19.40;99.90
27226;DHT22;14732;51.074;3.788;2023-09-08T03:39:57;19.40;99.90
27226;DHT22;14732;51.074;3.788;2023-09-08T03:42:23;19.40;99.90
27226;DHT22;14732;51.074;3.788;2023-09-08T03:44:48;19.30;99.90
27226;DHT22;14732;51.074;3.788;2023-09-08T03:47:14;19.30;99.90
27226;DHT22;14732;51.074;3.788;2023-09-08T03:49:39;19.30;99.90
27226;DHT22;14732;51.074;3.788;2023-09-08T03:52:05;19.20;99.90
27226;DHT22;14732;51.074;3.788;2023-09-08T03:54:31;19.20;99.90
27226;DHT22;14732;51.074;3.788;2023-09-08T03:56:56;19.20;99.90
27226;DHT22;14732;51.074;3.788;2023-09-08T03:59:22;19.10;99.90
27226;DHT22;14732;51.074;3.788;2023-09-08T04:01:47;19.10;99.90
27226;DHT22;14732;51.074;3.788;2023-09-08T04:04:13;19.10;99.90
27226;DHT22;14732;51.074;3.788;2023-09-08T04:06:39;19.00;99.90
27226;DHT22;14732;51.074;3.788;2023-09-08T04:09:04;19.00;99.90
27226;DHT22;14732;51.074;3.788;2023-09-08T04:11:30;19.00;99.90
27226;DHT22;14732;51.074;3.788;2023-09-08T04:13:56;19.10;99.90
27226;DHT22;14732;51.074;3.788;2023-09-08T04:16:21;19.10;99.90
27226;DHT22;14732;51.074;3.788;2023-09-08T04:18:47;19.10;99.90
27226;DHT22;14732;51.074;3.788;2023-09-08T04:21:13;19.00;99.90
27226;DHT22;14732;51.074;3.788;2023-09-08T04:23:39;19.00;99.90
27226;DHT22;14732;51.074;3.788;2023-09-08T04:26:04;19.00;99.90
27226;DHT22;14732;51.074;3.788;2023-09-08T04:28:30;18.90;99.90
27226;DHT22;14732;51.074;3.788;2023-09-08T04:30:56;18.90;99.90
27226;DHT22;14732;51.074;3.788;2023-09-08T04:33:23;18.90;99.90
27226;DHT22;14732;51.074;3.788;2023-09-08T04:35:49;18.90;99.90
27226;DHT22;14732;51.074;3.788;2023-09-08T04:38:14;18.90;99.90
27226;DHT22;14732;51.074;3.788;2023-09-08T04:40:40;18.90;99.90
27226;DHT22;14732;51.074;3.788;2023-09-08T04:43:07;18.90;99.90
27226;DHT22;14732;51.074;3.788;2023-09-08T04:45:33;18.90;99.90
27226;DHT22;14732;51.074;3.788;2023-09-08T04:47:58;18.80;99.90
27226;DHT22;14732;51.074;3.788;2023-09-08T04:50:24;18.80;99.90
27226;DHT22;14732;51.074;3.788;2023-09-08T04:52:49;18.70;99.90
27226;DHT22;14732;51.074;3.788;2023-09-08T04:55:16;18.80;99.90
27226;DHT22;14732;51.074;3.788;2023-09-08T04:57:42;18.70;99.90
27226;DHT22;14732;51.074;3.788;2023-09-08T05:00:08;18.70;99.90
27226;DHT22;14732;51.074;3.788;2023-09-08T05:02:34;18.70;99.90
27226;DHT22;14732;51.074;3.788;2023-09-08T05:04:59;18.70;99.90
27226;DHT22;14732;51.074;3.788;2023-09-08T05:07:25;18.60;99.90
27226;DHT22;14732;51.074;3.788;2023-09-08T05:09:51;18.70;99.90
27226;DHT22;14732;51.074;3.788;2023-09-08T05:12:16;18.70;99.90
27226;DHT22;14732;51.074;3.788;2023-09-08T05:14:42;18.70;99.90
27226;DHT22;14732;51.074;3.788;2023-09-08T05:17:08;18.70;99.90
27226;DHT22;14732;51.074;3.788;2023-09-08T05:19:33;18.60;99.90
27226;DHT22;14732;51.074;3.788;2023-09-08T05:21:59;18.60;99.90
27226;DHT22;14732;51.074;3.788;2023-09-08T05:24:25;18.60;99.90
27226;DHT22;14732;51.074;3.788;2023-09-08T05:26:52;18.60;99.90
27226;DHT22;14732;51.074;3.788;2023-09-08T05:29:17;18.60;99.90
27226;DHT22;14732;51.074;3.788;2023-09-08T05:31:43;18.70;99.90
27226;DHT22;14732;51.074;3.788;2023-09-08T05:34:09;18.60;99.90
27226;DHT22;14732;51.074;3.788;2023-09-08T05:36:35;18.70;99.90
27226;DHT22;14732;51.074;3.788;2023-09-08T05:39:03;18.60;99.90
27226;DHT22;14732;51.074;3.788;2023-09-08T05:41:30;18.50;99.90
27226;DHT22;14732;51.074;3.788;2023-09-08T05:43:55;18.60;99.90
27226;DHT22;14732;51.074;3.788;2023-09-08T05:46:21;18.60;99.90
27226;DHT22;14732;51.074;3.788;2023-09-08T05:48:46;18.50;99.90
27226;DHT22;14732;51.074;3.788;2023-09-08T05:51:13;18.60;99.90
27226;DHT22;14732;51.074;3.788;2023-09-08T05:53:40;18.70;99.90
27226;DHT22;14732;51.074;3.788;2023-09-08T05:56:06;18.80;99.90
27226;DHT22;14732;51.074;3.788;2023-09-08T05:58:32;18.90;99.90
27226;DHT22;14732;51.074;3.788;2023-09-08T06:01:02;19.00;99.90
27226;DHT22;14732;51.074;3.788;2023-09-08T06:03:28;19.20;99.90
27226;DHT22;14732;51.074;3.788;2023-09-08T06:05:54;19.30;99.90
27226;DHT22;14732;51.074;3.788;2023-09-08T06:08:19;19.40;99.90
27226;DHT22;14732;51.074;3.788;2023-09-08T06:10:45;19.60;99.90
27226;DHT22;14732;51.074;3.788;2023-09-08T06:13:11;19.60;99.90
27226;DHT22;14732;51.074;3.788;2023-09-08T06:15:37;19.70;99.90
27226;DHT22;14732;51.074;3.788;2023-09-08T06:18:02;19.80;99.90
27226;DHT22;14732;51.074;3.788;2023-09-08T06:20:28;20.00;99.90
27226;DHT22;14732;51.074;3.788;2023-09-08T06:22:54;20.10;99.90
27226;DHT22;14732;51.074;3.788;2023-09-08T06:25:19;20.20;99.90
27226;DHT22;14732;51.074;3.788;2023-09-08T06:27:45;20.30;99.90
27226;DHT22;14732;51.074;3.788;2023-09-08T06:30:11;20.40;99.90
27226;DHT22;14732;51.074;3.788;2023-09-08T06:32:39;20.50;99.90
27226;DHT22;14732;51.074;3.788;2023-09-08T06:35:04;20.50;99.90
27226;DHT22;14732;51.074;3.788;2023-09-08T06:37:35;20.60;99.90
27226;DHT22;14732;51.074;3.788;2023-09-08T06:40:01;20.70;99.90
27226;DHT22;14732;51.074;3.788;2023-09-08T06:42:27;20.80;99.90
27226;DHT22;14732;51.074;3.788;2023-09-08T06:44:52;20.90;99.90
27226;DHT22;14732;51.074;3.788;2023-09-08T06:47:18;21.00;99.90
27226;DHT22;14732;51.074;3.788;2023-09-08T06:49:44;21.00;99.90
27226;DHT22;14732;51.074;3.788;2023-09-08T06:52:09;21.00;99.90
27226;DHT22;14732;51.074;3.788;2023-09-08T06:54:35;21.20;99.90
27226;DHT22;14732;51.074;3.788;2023-09-08T06:57:00;21.30;99.90
27226;DHT22;14732;51.074;3.788;2023-09-08T06:59:26;21.20;99.90
27226;DHT22;14732;51.074;3.788;2023-09-08T07:01:52;21.30;99.90
27226;DHT22;14732;51.074;3.788;2023-09-08T07:04:17;21.50;99.90
27226;DHT22;14732;51.074;3.788;2023-09-08T07:06:43;21.60;99.90
27226;DHT22;14732;51.074;3.788;2023-09-08T07:09:10;21.70;99.90
27226;DHT22;14732;51.074;3.788;2023-09-08T07:11:35;21.80;99.90
27226;DHT22;14732;51.074;3.788;2023-09-08T07:14:02;21.90;99.90
27226;DHT22;14732;51.074;3.788;2023-09-08T07:16:28;21.80;99.90
27226;DHT22;14732;51.074;3.788;2023-09-08T07:18:53;21.80;99.90
27226;DHT22;14732;51.074;3.788;2023-09-08T07:21:19;22.00;99.90
27226;DHT22;14732;51.074;3.788;2023-09-08T07:23:45;22.30;99.90
27226;DHT22;14732;51.074;3.788;2023-09-08T07:26:10;22.50;99.90
27226;DHT22;14732;51.074;3.788;2023-09-08T07:28:36;22.50;99.90
27226;DHT22;14732;51.074;3.788;2023-09-08T07:31:05;22.40;99.90
27226;DHT22;14732;51.074;3.788;2023-09-08T07:33:31;22.60;99.90
27226;DHT22;14732;51.074;3.788;2023-09-08T07:35:57;22.70;99.90
27226;DHT22;14732;51.074;3.788;2023-09-08T07:38:22;22.90;99.90
27226;DHT22;14732;51.074;3.788;2023-09-08T07:40:48;22.80;99.90
27226;DHT22;14732;51.074;3.788;2023-09-08T07:43:14;23.00;99.90
27226;DHT22;14732;51.074;3.788;2023-09-08T07:45:39;23.30;99.90
27226;DHT22;14732;51.074;3.788;2023-09-08T07:48:06;23.50;99.90
27226;DHT22;14732;51.074;3.788;2023-09-08T07:50:32;23.60;99.90
27226;DHT22;14732;51.074;3.788;2023-09-08T07:52:58;23.30;99.90
27226;DHT22;14732;51.074;3.788;2023-09-08T07:55:24;23.60;99.90
27226;DHT22;14732;51.074;3.788;2023-09-08T07:57:53;23.80;99.90
27226;DHT22;14732;51.074;3.788;2023-09-08T08:00:19;23.80;99.90
27226;DHT22;14732;51.074;3.788;2023-09-08T08:02:51;23.80;99.90
27226;DHT22;14732;51.074;3.788;2023-09-08T08:05:17;24.10;99.90
27226;DHT22;14732;51.074;3.788;2023-09-08T08:07:43;24.20;99.90
27226;DHT22;14732;51.074;3.788;2023-09-08T08:10:10;24.30;99.90
27226;DHT22;14732;51.074;3.788;2023-09-08T08:12:36;24.30;99.90
27226;DHT22;14732;51.074;3.788;2023-09-08T08:15:02;24.40;99.90
27226;DHT22;14732;51.074;3.788;2023-09-08T08:17:28;24.30;99.90
27226;DHT22;14732;51.074;3.788;2023-09-08T08:19:55;24.60;99.90
27226;DHT22;14732;51.074;3.788;2023-09-08T08:22:21;24.90;99.90
27226;DHT22;14732;51.074;3.788;2023-09-08T08:24:47;24.90;99.90
27226;DHT22;14732;51.074;3.788;2023-09-08T08:27:12;24.80;99.90
27226;DHT22;14732;51.074;3.788;2023-09-08T08:29:39;24.80;99.90
27226;DHT22;14732;51.074;3.788;2023-09-08T08:32:04;25.00;99.90
27226;DHT22;14732;51.074;3.788;2023-09-08T08:34:30;25.20;99.90
27226;DHT22;14732;51.074;3.788;2023-09-08T08:36:56;25.30;99.90
27226;DHT22;14732;51.074;3.788;2023-09-08T08:39:21;25.40;99.90
27226;DHT22;14732;51.074;3.788;2023-09-08T08:41:47;25.20;99.90
27226;DHT22;14732;51.074;3.788;2023-09-08T08:44:13;25.30;99.90
27226;DHT22;14732;51.074;3.788;2023-09-08T08:46:42;25.10;99.90
27226;DHT22;14732;51.074;3.788;2023-09-08T08:49:09;25.20;99.90
27226;DHT22;14732;51.074;3.788;2023-09-08T08:51:37;25.70;99.90
27226;DHT22;14732;51.074;3.788;2023-09-08T08:54:04;26.10;99.90
27226;DHT22;14732;51.074;3.788;2023-09-08T08:56:35;26.30;99.90
27226;DHT22;14732;51.074;3.788;2023-09-08T08:59:01;26.50;99.90
27226;DHT22;14732;51.074;3.788;2023-09-08T09:01:28;26.90;99.90
27226;DHT22;14732;51.074;3.788;2023-09-08T09:03:55;27.20;99.90
27226;DHT22;14732;51.074;3.788;2023-09-08T09:06:22;27.30;99.90
27226;DHT22;14732;51.074;3.788;2023-09-08T09:08:47;27.80;99.90
27226;DHT22;14732;51.074;3.788;2023-09-08T09:11:13;27.90;99.90
27226;DHT22;14732;51.074;3.788;2023-09-08T09:13:39;28.50;99.90
27226;DHT22;14732;51.074;3.788;2023-09-08T09:16:05;29.10;99.90
27226;DHT22;14732;51.074;3.788;2023-09-08T09:18:33;30.20;99.90
27226;DHT22;14732;51.074;3.788;2023-09-08T09:21:00;31.30;99.90
27226;DHT22;14732;51.074;3.788;2023-09-08T09:23:27;32.40;99.90
27226;DHT22;14732;51.074;3.788;2023-09-08T09:25:53;32.70;99.90
27226;DHT22;14732;51.074;3.788;2023-09-08T09:28:19;33.70;99.90
27226;DHT22;14732;51.074;3.788;2023-09-08T09:30:50;34.80;99.90
27226;DHT22;14732;51.074;3.788;2023-09-08T09:33:16;35.30;99.90
27226;DHT22;14732;51.074;3.788;2023-09-08T09:35:50;34.90;99.90
27226;DHT22;14732;51.074;3.788;2023-09-08T09:38:17;34.50;99.90
27226;DHT22;14732;51.074;3.788;2023-09-08T09:40:45;33.90;99.90
27226;DHT22;14732;51.074;3.788;2023-09-08T09:43:11;33.50;99.90
27226;DHT22;14732;51.074;3.788;2023-09-08T09:45:38;32.90;99.90
27226;DHT22;14732;51.074;3.788;2023-09-08T09:48:05;32.50;99.90
27226;DHT22;14732;51.074;3.788;2023-09-08T09:50:34;31.50;99.90
27226;DHT22;14732;51.074;3.788;2023-09-08T09:53:02;30.70;99.90
27226;DHT22;14732;51.074;3.788;2023-09-08T09:55:28;30.40;99.90
27226;DHT22;14732;51.074;3.788;2023-09-08T09:57:58;30.40;99.90
27226;DHT22;14732;51.074;3.788;2023-09-08T10:00:26;29.70;99.90
27226;DHT22;14732;51.074;3.788;2023-09-08T10:02:54;29.70;99.90
27226;DHT22;14732;51.074;3.788;2023-09-08T10:05:20;29.70;99.90
27226;DHT22;14732;51.074;3.788;2023-09-08T10:07:47;29.80;99.90
27226;DHT22;14732;51.074;3.788;2023-09-08T10:10:14;29.90;99.90
27226;DHT22;14732;51.074;3.788;2023-09-08T10:12:43;30.00;99.90
27226;DHT22;14732;51.074;3.788;2023-09-08T10:15:10;29.70;99.90
27226;DHT22;14732;51.074;3.788;2023-09-08T10:17:37;29.10;99.90
27226;DHT22;14732;51.074;3.788;2023-09-08T10:20:05;29.30;99.90
27226;DHT22;14732;51.074;3.788;2023-09-08T10:22:38;29.30;99.90
27226;DHT22;14732;51.074;3.788;2023-09-08T10:25:08;29.60;99.90
27226;DHT22;14732;51.074;3.788;2023-09-08T10:27:34;29.80;99.90
27226;DHT22;14732;51.074;3.788;2023-09-08T10:30:03;29.90;99.90
27226;DHT22;14732;51.074;3.788;2023-09-08T10:32:36;30.00;99.90
27226;DHT22;14732;51.074;3.788;2023-09-08T10:35:06;30.40;99.90
27226;DHT22;14732;51.074;3.788;2023-09-08T10:37:32;30.40;99.90
27226;DHT22;14732;51.074;3.788;2023-09-08T10:40:25;30.40;99.90
27226;DHT22;14732;51.074;3.788;2023-09-08T10:43:11;30.30;99.90
27226;DHT22;14732;51.074;3.788;2023-09-08T10:45:37;29.90;99.90
27226;DHT22;14732;51.074;3.788;2023-09-08T10:48:06;30.20;99.90
27226;DHT22;14732;51.074;3.788;2023-09-08T10:50:33;30.30;99.90
27226;DHT22;14732;51.074;3.788;2023-09-08T10:53:10;30.40;99.90
27226;DHT22;14732;51.074;3.788;2023-09-08T10:55:56;30.60;99.90
27226;DHT22;14732;51.074;3.788;2023-09-08T10:58:35;30.70;99.90
27226;DHT22;14732;51.074;3.788;2023-09-08T11:01:04;30.90;99.90
27226;DHT22;14732;51.074;3.788;2023-09-08T11:06:09;31.20;99.90
27226;DHT22;14732;51.074;3.788;2023-09-08T11:08:43;31.20;99.90
27226;DHT22;14732;51.074;3.788;2023-09-08T11:11:11;31.20;99.90
27226;DHT22;14732;51.074;3.788;2023-09-08T11:13:37;31.40;99.90
27226;DHT22;14732;51.074;3.788;2023-09-08T11:16:05;31.40;99.90
27226;DHT22;14732;51.074;3.788;2023-09-08T11:18:32;31.30;99.90
27226;DHT22;14732;51.074;3.788;2023-09-08T11:21:02;31.20;99.90
27226;DHT22;14732;51.074;3.788;2023-09-08T11:23:28;31.10;99.90
27226;DHT22;14732;51.074;3.788;2023-09-08T11:25:54;31.40;99.90
27226;DHT22;14732;51.074;3.788;2023-09-08T11:28:24;31.60;99.90
27226;DHT22;14732;51.074;3.788;2023-09-08T11:30:50;31.50;99.90
27226;DHT22;14732;51.074;3.788;2023-09-08T11:33:20;31.80;99.90
27226;DHT22;14732;51.074;3.788;2023-09-08T11:35:54;31.70;99.90
27226;DHT22;14732;51.074;3.788;2023-09-08T11:38:29;31.10;99.90
27226;DHT22;14732;51.074;3.788;2023-09-08T11:40:58;30.50;99.90
27226;DHT22;14732;51.074;3.788;2023-09-08T11:43:24;30.70;99.90
27226;DHT22;14732;51.074;3.788;2023-09-08T11:45:51;31.10;99.90
27226;DHT22;14732;51.074;3.788;2023-09-08T11:48:16;31.40;99.90
27226;DHT22;14732;51.074;3.788;2023-09-08T11:50:42;31.40;99.90
27226;DHT22;14732;51.074;3.788;2023-09-08T11:53:09;31.70;99.90
27226;DHT22;14732;51.074;3.788;2023-09-08T11:55:35;31.90;99.90
27226;DHT22;14732;51.074;3.788;2023-09-08T11:58:03;31.80;99.90
27226;DHT22;14732;51.074;3.788;2023-09-08T12:00:29;31.90;99.90
27226;DHT22;14732;51.074;3.788;2023-09-08T12:02:56;32.00;99.90
27226;DHT22;14732;51.074;3.788;2023-09-08T12:05:34;32.10;99.90
27226;DHT22;14732;51.074;3.788;2023-09-08T12:08:04;32.10;99.90
27226;DHT22;14732;51.074;3.788;2023-09-08T12:10:40;32.20;99.90
27226;DHT22;14732;51.074;3.788;2023-09-08T12:13:06;31.90;99.90
27226;DHT22;14732;51.074;3.788;2023-09-08T12:15:40;31.90;99.90
27226;DHT22;14732;51.074;3.788;2023-09-08T12:18:11;31.90;99.90
27226;DHT22;14732;51.074;3.788;2023-09-08T12:20:38;31.60;99.90
27226;DHT22;14732;51.074;3.788;2023-09-08T12:23:20;31.20;99.90
27226;DHT22;14732;51.074;3.788;2023-09-08T12:25:48;31.20;99.90
27226;DHT22;14732;51.074;3.788;2023-09-08T12:28:13;31.30;99.90
27226;DHT22;14732;51.074;3.788;2023-09-08T12:30:39;31.50;99.90
27226;DHT22;14732;51.074;3.788;2023-09-08T12:33:05;31.60;99.90
27226;DHT22;14732;51.074;3.788;2023-09-08T12:35:31;31.50;99.90
27226;DHT22;14732;51.074;3.788;2023-09-08T12:38:04;31.70;99.90
27226;DHT22;14732;51.074;3.788;2023-09-08T12:40:34;31.90;99.90
27226;DHT22;14732;51.074;3.788;2023-09-08T12:42:59;32.10;99.90
27226;DHT22;14732;51.074;3.788;2023-09-08T12:45:26;31.90;99.90
27226;DHT22;14732;51.074;3.788;2023-09-08T12:47:53;31.90;99.90
27226;DHT22;14732;51.074;3.788;2023-09-08T12:50:23;32.00;99.90
27226;DHT22;14732;51.074;3.788;2023-09-08T12:52:49;32.10;99.90
27226;DHT22;14732;51.074;3.788;2023-09-08T12:55:15;32.00;99.90
27226;DHT22;14732;51.074;3.788;2023-09-08T12:57:40;32.00;99.90
27226;DHT22;14732;51.074;3.788;2023-09-08T13:00:06;31.80;99.90
27226;DHT22;14732;51.074;3.788;2023-09-08T13:02:33;31.80;99.90
27226;DHT22;14732;51.074;3.788;2023-09-08T13:04:58;31.40;99.90
27226;DHT22;14732;51.074;3.788;2023-09-08T13:07:24;31.00;99.90
27226;DHT22;14732;51.074;3.788;2023-09-08T13:09:51;30.80;99.90
27226;DHT22;14732;51.074;3.788;2023-09-08T13:12:17;31.00;99.90
27226;DHT22;14732;51.074;3.788;2023-09-08T13:14:43;31.00;99.90
27226;DHT22;14732;51.074;3.788;2023-09-08T13:17:13;30.90;99.90
27226;DHT22;14732;51.074;3.788;2023-09-08T13:19:41;30.90;99.90
27226;DHT22;14732;51.074;3.788;2023-09-08T13:22:07;31.00;99.90
27226;DHT22;14732;51.074;3.788;2023-09-08T13:24:33;31.00;99.90
27226;DHT22;14732;51.074;3.788;2023-09-08T13:26:59;31.40;99.90
27226;DHT22;14732;51.074;3.788;2023-09-08T13:29:25;31.40;99.90
27226;DHT22;14732;51.074;3.788;2023-09-08T13:31:52;31.50;99.90
27226;DHT22;14732;51.074;3.788;2023-09-08T13:34:18;31.60;99.90
27226;DHT22;14732;51.074;3.788;2023-09-08T13:36:44;31.50;99.90
27226;DHT22;14732;51.074;3.788;2023-09-08T13:39:09;31.50;99.90
27226;DHT22;14732;51.074;3.788;2023-09-08T13:41:55;31.60;99.90
27226;DHT22;14732;51.074;3.788;2023-09-08T13:44:23;31.70;99.90
27226;DHT22;14732;51.074;3.788;2023-09-08T13:46:49;31.50;99.90
27226;DHT22;14732;51.074;3.788;2023-09-08T13:49:16;31.90;99.90
27226;DHT22;14732;51.074;3.788;2023-09-08T13:51:42;32.00;99.90
27226;DHT22;14732;51.074;3.788;2023-09-08T13:54:09;31.90;99.90
27226;DHT22;14732;51.074;3.788;2023-09-08T13:56:35;31.70;99.90
27226;DHT22;14732;51.074;3.788;2023-09-08T13:59:01;31.60;99.90
27226;DHT22;14732;51.074;3.788;2023-09-08T14:01:27;31.50;99.90
27226;DHT22;14732;51.074;3.788;2023-09-08T14:03:57;31.40;99.90
27226;DHT22;14732;51.074;3.788;2023-09-08T14:06:23;31.50;99.90
27226;DHT22;14732;51.074;3.788;2023-09-08T14:08:52;31.40;99.90
27226;DHT22;14732;51.074;3.788;2023-09-08T14:11:18;31.50;99.90
27226;DHT22;14732;51.074;3.788;2023-09-08T14:13:43;31.30;99.90
27226;DHT22;14732;51.074;3.788;2023-09-08T14:16:10;31.60;99.90
27226;DHT22;14732;51.074;3.788;2023-09-08T14:18:36;31.50;99.90
27226;DHT22;14732;51.074;3.788;2023-09-08T14:21:01;31.30;99.90
27226;DHT22;14732;51.074;3.788;2023-09-08T14:23:28;31.50;99.90
27226;DHT22;14732;51.074;3.788;2023-09-08T14:25:54;31.60;99.90
27226;DHT22;14732;51.074;3.788;2023-09-08T14:28:20;31.70;99.90
27226;DHT22;14732;51.074;3.788;2023-09-08T14:30:46;31.60;99.90
27226;DHT22;14732;51.074;3.788;2023-09-08T14:33:12;31.50;99.90
27226;DHT22;14732;51.074;3.788;2023-09-08T14:35:42;31.50;99.90
27226;DHT22;14732;51.074;3.788;2023-09-08T14:38:09;31.30;99.90
27226;DHT22;14732;51.074;3.788;2023-09-08T14:40:34;31.30;99.90
27226;DHT22;14732;51.074;3.788;2023-09-08T14:43:00;31.40;99.90
27226;DHT22;14732;51.074;3.788;2023-09-08T14:45:25;31.20;99.90
27226;DHT22;14732;51.074;3.788;2023-09-08T14:47:53;31.00;99.90
27226;DHT22;14732;51.074;3.788;2023-09-08T14:50:19;30.70;99.90
27226;DHT22;14732;51.074;3.788;2023-09-08T14:52:45;30.70;99.90
27226;DHT22;14732;51.074;3.788;2023-09-08T14:55:10;30.70;99.90
27226;DHT22;14732;51.074;3.788;2023-09-08T14:57:36;30.80;99.90
27226;DHT22;14732;51.074;3.788;2023-09-08T15:00:05;31.00;99.90
27226;DHT22;14732;51.074;3.788;2023-09-08T15:02:33;31.10;99.90
27226;DHT22;14732;51.074;3.788;2023-09-08T15:04:59;30.90;99.90
27226;DHT22;14732;51.074;3.788;2023-09-08T15:07:24;31.00;99.90
27226;DHT22;14732;51.074;3.788;2023-09-08T15:09:50;31.00;99.90
27226;DHT22;14732;51.074;3.788;2023-09-08T15:12:16;30.90;99.90
27226;DHT22;14732;51.074;3.788;2023-09-08T15:14:42;30.70;99.90
27226;DHT22;14732;51.074;3.788;2023-09-08T15:17:08;30.60;99.90
27226;DHT22;14732;51.074;3.788;2023-09-08T15:19:33;30.50;99.90
27226;DHT22;14732;51.074;3.788;2023-09-08T15:21:59;30.30;99.90
27226;DHT22;14732;51.074;3.788;2023-09-08T15:24:25;30.30;99.90
27226;DHT22;14732;51.074;3.788;2023-09-08T15:26:50;30.30;99.90
27226;DHT22;14732;51.074;3.788;2023-09-08T15:29:16;30.50;99.90
27226;DHT22;14732;51.074;3.788;2023-09-08T15:31:45;30.60;99.90
27226;DHT22;14732;51.074;3.788;2023-09-08T15:34:12;30.60;99.90